Flight Track Log - Related Links

Times and Time Zones

All times are in EDT time to prevent confusion due to time zone crossing. See the ERR703 flight status page for this flight to view local times or setup timezone preferences in your user account.

Time Position Orientation Groundspeed Altitude Reporting Facility
EDT Latitude Longitude Course Direction KTS MPH feet Rate Location/Type
Sun 04:43:19 PM 64.7667 -148.0000 217° Southwest 140 161 5,100  Level Anchorage Center
Sun 04:44:20 PM 64.7500 -148.0833 245° Southwest 150 173 7,100 1,785 Climbing Anchorage Center
Sun 04:45:20 PM 64.7167 -148.1333 213° Southwest 160 184 8,700 1,636 Climbing Anchorage Center
Sun 04:46:21 PM 64.6667 -148.1833 203° Southwest 180 207 10,400 1,736 Climbing Anchorage Center
Sun 04:47:00 PM 64.5571 -148.4359 221° Southwest  Level FlightAware Approximate
Sun 04:47:21 PM 64.6167 -148.2167 196° South 180 207 12,200  Level Anchorage Center
Sun 04:48:00 PM 64.5090 -148.5261 217° Southwest  Level FlightAware Approximate
Sun 04:48:21 PM 64.5833 -148.2667 213° Southwest 190 219 13,700  Level Anchorage Center
Sun 04:49:22 PM 64.5333 -148.3000 196° South 190 219 15,300 1,438 Climbing Anchorage Center
Sun 04:50:22 PM 64.4667 -148.3500 198° South 200 230 16,600 1,300 Climbing Anchorage Center
Sun 04:51:22 PM 64.4167 -148.4000 203° Southwest 210 242 17,900 1,150 Climbing Anchorage Center
Sun 04:52:22 PM 64.3667 -148.4333 196° South 210 242 18,900 992 Climbing Anchorage Center
Sun 04:53:23 PM 64.3167 -148.4667 196° South 210 242 19,900 893 Climbing Anchorage Center
Sun 04:54:23 PM 64.2500 -148.5167 198° South 210 242 20,700 850 Climbing Anchorage Center
Sun 04:55:23 PM 64.2000 -148.5667 204° Southwest 210 242 21,600 793 Climbing Anchorage Center
Sun 04:56:24 PM 64.1333 -148.6167 198° South 220 253 22,300 694 Climbing Anchorage Center
Sun 04:57:24 PM 64.0833 -148.6667 204° Southwest 220 253 23,000 350 Climbing Anchorage Center
Sun 04:58:24 PM 64.0167 -148.7167 198° South 230 265 23,000  Level Anchorage Center
Sun 04:59:25 PM 63.9500 -148.7667 198° South 240 276 23,000  Level Anchorage Center
Sun 05:00:25 PM 63.8833 -148.8167 198° South 240 276 23,000  Level Anchorage Center
Sun 05:01:25 PM 63.8333 -148.8667 204° Southwest 240 276 23,000  Level Anchorage Center
Sun 05:02:26 PM 63.7667 -148.9167 198° South 240 276 23,000  Level Anchorage Center
Sun 05:03:26 PM 63.7000 -148.9667 198° South 240 276 23,000  Level Anchorage Center
Sun 05:04:26 PM 63.6333 -149.0167 198° South 240 276 23,000  Level Anchorage Center
Sun 05:05:27 PM 63.5667 -149.0667 198° South 250 288 23,000  Level Anchorage Center
Sun 05:06:27 PM 63.5000 -149.1167 199° South 250 288 23,000  Level Anchorage Center
Sun 05:07:28 PM 63.4333 -149.1667 199° South 250 288 23,000  Level Anchorage Center
Sun 05:08:28 PM 63.3667 -149.2167 199° South 250 288 23,000  Level Anchorage Center
Sun 05:09:28 PM 63.3000 -149.2833 204° Southwest 260 299 23,000  Level Anchorage Center
Sun 05:10:29 PM 63.2333 -149.3333 199° South 250 288 23,000  Level Anchorage Center
Sun 05:11:29 PM 63.1667 -149.3833 199° South 270 311 23,000  Level Anchorage Center
Sun 05:12:29 PM 63.1000 -149.4333 199° South 270 311 23,000  Level Anchorage Center
Sun 05:13:30 PM 63.0167 -149.4833 195° South 260 299 23,000 50 Level Anchorage Center
Sun 05:14:30 PM 62.9500 -149.5333 199° South 260 299 23,100  Climbing Anchorage Center
Sun 05:15:30 PM 62.8833 -149.5833 199° South 260 299 23,000 -50 Descending Anchorage Center
Sun 05:16:30 PM 62.8167 -149.6500 205° Southwest 260 299 23,000  Level Anchorage Center
Sun 05:17:31 PM 62.7500 -149.7000 199° South 260 299 23,000  Level Anchorage Center
Sun 05:18:31 PM 62.6833 -149.7500 199° South 260 299 23,000  Level Anchorage Center
Sun 05:19:32 PM 62.6000 -149.8000 195° South 260 299 23,000  Level Anchorage Center
Sun 05:20:32 PM 62.5333 -149.8500 199° South 260 299 23,000  Level Anchorage Center
Sun 05:21:32 PM 62.4667 -149.9000 199° South 260 299 23,000  Level Anchorage Center
Sun 05:22:33 PM 62.3833 -149.9500 196° South 260 299 23,000  Level Anchorage Center
Sun 05:23:33 PM 62.3167 -150.0000 199° South 270 311 23,000 -50 Level Anchorage Center
Sun 05:24:33 PM 62.2500 -150.0333 193° South 260 299 22,900 -1,041 Descending Anchorage Center
Sun 05:25:34 PM 62.1833 -150.1167 210° Southwest 270 311 20,900 -1,983 Descending Anchorage Center
Sun 05:26:34 PM 62.1000 -150.1500 191° South 270 311 18,900 -1,983 Descending Anchorage Center
Sun 05:27:35 PM 62.0333 -150.1833 193° South 260 299 16,900 -1,884 Descending Anchorage Center
Sun 05:28:35 PM 61.9667 -150.2333 199° South 240 276 15,100 -1,900 Descending Anchorage Center
Sun 05:29:35 PM 61.9167 -150.3000 212° Southwest 230 265 13,100 -2,000 Descending Anchorage Center
Sun 05:31:00 PM 61.8280 -150.3339 198° South  Level FlightAware Approximate
Sun 05:38:00 PM 61.4194 -150.2194 154° Southeast  Level FlightAware Approximate
Sun 05:39:00 PM 61.3613 -150.1724 149° Southeast  Level FlightAware Approximate
Sun 05:40:00 PM 61.3063 -150.1084 159° South  Level FlightAware Approximate
Sun 05:41:00 PM 61.2475 -150.0613 159° South  Level FlightAware Approximate
Sun 05:42:00 PM 61.1902 -150.0068 154° Southeast  Level FlightAware Approximate
Sun 05:43:00 PM 61.1741 -149.9982 154° Southeast  Level Estimated
Sun 05:44:00 PM 61.1741 -149.9982 136° Southeast  Level Estimated
Sun 05:45:00 PM 61.1741 -149.9982 154° Southeast  Level Estimated
Sun 05:46:00 PM 61.1741 -149.9982 136° Southeast  Level Estimated
Sun 05:47:00 PM 61.1741 -149.9982 154° Southeast  Level Estimated
Sun 05:48:00 PM 61.1741 -149.9982 136° Southeast  Level Estimated
Sun 05:49:00 PM 61.1741 -149.9982 154° Southeast  Level Estimated
Sun 05:50:00 PM 61.1741 -149.9982 136° Southeast  Level Estimated
Sun 05:51:00 PM 61.1741 -149.9982 154° Southeast  Level Estimated
Sun 05:52:00 PM 61.1741 -149.9982 136° Southeast  Level Estimated

Login

Don't have an account? Register now (free) for customized features, flight alerts, and more!